sensor_id;sensor_type;location;lat;lon;timestamp;P1;durP1;ratioP1;P2;durP2;ratioP2
24090;SDS011;12272;52.426;17.100;2023-02-27T00:04:47;10.17;;;4.70;;
24090;SDS011;12272;52.426;17.100;2023-02-27T00:09:51;11.67;;;4.30;;
24090;SDS011;12272;52.426;17.100;2023-02-27T00:14:54;6.70;;;3.50;;
24090;SDS011;12272;52.426;17.100;2023-02-27T00:19:56;8.47;;;4.73;;
24090;SDS011;12272;52.426;17.100;2023-02-27T00:24:59;10.30;;;5.27;;
24090;SDS011;12272;52.426;17.100;2023-02-27T00:30:05;7.90;;;4.73;;
24090;SDS011;12272;52.426;17.100;2023-02-27T00:35:10;11.53;;;6.10;;
24090;SDS011;12272;52.426;17.100;2023-02-27T00:40:13;6.07;;;3.10;;
24090;SDS011;12272;52.426;17.100;2023-02-27T00:45:16;12.37;;;6.13;;
24090;SDS011;12272;52.426;17.100;2023-02-27T00:50:21;9.07;;;4.30;;
24090;SDS011;12272;52.426;17.100;2023-02-27T00:55:24;6.30;;;3.97;;
24090;SDS011;12272;52.426;17.100;2023-02-27T01:00:28;9.80;;;5.57;;
24090;SDS011;12272;52.426;17.100;2023-02-27T01:05:31;9.87;;;5.50;;
24090;SDS011;12272;52.426;17.100;2023-02-27T01:10:33;13.77;;;6.60;;
24090;SDS011;12272;52.426;17.100;2023-02-27T01:15:36;10.17;;;5.00;;
24090;SDS011;12272;52.426;17.100;2023-02-27T01:20:38;11.93;;;5.43;;
24090;SDS011;12272;52.426;17.100;2023-02-27T01:25:41;9.93;;;4.63;;
24090;SDS011;12272;52.426;17.100;2023-02-27T01:30:44;10.73;;;5.07;;
24090;SDS011;12272;52.426;17.100;2023-02-27T01:35:48;10.47;;;5.00;;
24090;SDS011;12272;52.426;17.100;2023-02-27T01:40:51;7.43;;;4.47;;
24090;SDS011;12272;52.426;17.100;2023-02-27T01:45:54;8.17;;;4.97;;
24090;SDS011;12272;52.426;17.100;2023-02-27T01:50:58;9.77;;;5.17;;
24090;SDS011;12272;52.426;17.100;2023-02-27T01:56:11;7.90;;;4.27;;
24090;SDS011;12272;52.426;17.100;2023-02-27T02:01:17;8.23;;;3.67;;
24090;SDS011;12272;52.426;17.100;2023-02-27T02:06:21;6.90;;;4.37;;
24090;SDS011;12272;52.426;17.100;2023-02-27T02:11:25;7.20;;;4.40;;
24090;SDS011;12272;52.426;17.100;2023-02-27T02:22:23;12.50;;;5.47;;
24090;SDS011;12272;52.426;17.100;2023-02-27T02:43:37;8.47;;;4.60;;
24090;SDS011;12272;52.426;17.100;2023-02-27T02:48:55;12.10;;;5.10;;
24090;SDS011;12272;52.426;17.100;2023-02-27T03:05:07;7.63;;;3.57;;
24090;SDS011;12272;52.426;17.100;2023-02-27T03:10:15;7.37;;;3.67;;
24090;SDS011;12272;52.426;17.100;2023-02-27T03:15:24;10.23;;;3.87;;
24090;SDS011;12272;52.426;17.100;2023-02-27T03:20:36;8.63;;;4.70;;
24090;SDS011;12272;52.426;17.100;2023-02-27T03:25:43;6.57;;;3.90;;
24090;SDS011;12272;52.426;17.100;2023-02-27T03:42:06;5.83;;;3.03;;
24090;SDS011;12272;52.426;17.100;2023-02-27T03:46:57;6.97;;;3.80;;
24090;SDS011;12272;52.426;17.100;2023-02-27T03:52:00;5.80;;;3.20;;
24090;SDS011;12272;52.426;17.100;2023-02-27T03:57:05;5.30;;;3.37;;
24090;SDS011;12272;52.426;17.100;2023-02-27T04:02:09;4.93;;;2.53;;
24090;SDS011;12272;52.426;17.100;2023-02-27T04:18:16;7.97;;;4.80;;
24090;SDS011;12272;52.426;17.100;2023-02-27T04:23:38;6.57;;;3.97;;
24090;SDS011;12272;52.426;17.100;2023-02-27T04:29:05;8.87;;;4.27;;
24090;SDS011;12272;52.426;17.100;2023-02-27T04:34:28;8.40;;;4.13;;
24090;SDS011;12272;52.426;17.100;2023-02-27T04:39:37;5.17;;;3.43;;
24090;SDS011;12272;52.426;17.100;2023-02-27T04:44:47;5.73;;;3.17;;
24090;SDS011;12272;52.426;17.100;2023-02-27T04:49:53;5.67;;;3.20;;
24090;SDS011;12272;52.426;17.100;2023-02-27T05:00:12;6.00;;;3.87;;
24090;SDS011;12272;52.426;17.100;2023-02-27T05:05:22;4.47;;;3.27;;
24090;SDS011;12272;52.426;17.100;2023-02-27T05:16:16;5.17;;;3.57;;
24090;SDS011;12272;52.426;17.100;2023-02-27T05:32:01;7.87;;;3.80;;
24090;SDS011;12272;52.426;17.100;2023-02-27T05:37:15;7.27;;;4.20;;
24090;SDS011;12272;52.426;17.100;2023-02-27T05:42:24;9.37;;;4.83;;
24090;SDS011;12272;52.426;17.100;2023-02-27T05:47:31;12.67;;;4.20;;
24090;SDS011;12272;52.426;17.100;2023-02-27T05:52:38;7.47;;;4.33;;
24090;SDS011;12272;52.426;17.100;2023-02-27T05:57:48;7.63;;;3.93;;
24090;SDS011;12272;52.426;17.100;2023-02-27T06:03:02;5.43;;;3.87;;
24090;SDS011;12272;52.426;17.100;2023-02-27T06:08:05;3.93;;;2.80;;
24090;SDS011;12272;52.426;17.100;2023-02-27T06:13:07;6.00;;;3.20;;
24090;SDS011;12272;52.426;17.100;2023-02-27T06:18:10;5.80;;;3.83;;
24090;SDS011;12272;52.426;17.100;2023-02-27T06:23:13;6.53;;;4.03;;
24090;SDS011;12272;52.426;17.100;2023-02-27T06:28:16;6.40;;;4.40;;
24090;SDS011;12272;52.426;17.100;2023-02-27T06:33:19;6.97;;;4.20;;
24090;SDS011;12272;52.426;17.100;2023-02-27T06:38:21;11.00;;;3.73;;
24090;SDS011;12272;52.426;17.100;2023-02-27T06:43:24;5.63;;;3.53;;
24090;SDS011;12272;52.426;17.100;2023-02-27T06:48:27;6.47;;;4.10;;
24090;SDS011;12272;52.426;17.100;2023-02-27T06:53:29;7.70;;;3.83;;
24090;SDS011;12272;52.426;17.100;2023-02-27T06:58:32;8.73;;;5.03;;
24090;SDS011;12272;52.426;17.100;2023-02-27T07:03:34;10.70;;;4.97;;
24090;SDS011;12272;52.426;17.100;2023-02-27T07:08:37;10.83;;;5.10;;
24090;SDS011;12272;52.426;17.100;2023-02-27T07:13:59;9.03;;;4.80;;
24090;SDS011;12272;52.426;17.100;2023-02-27T07:19:02;6.17;;;4.73;;
24090;SDS011;12272;52.426;17.100;2023-02-27T07:24:04;6.13;;;3.80;;
24090;SDS011;12272;52.426;17.100;2023-02-27T07:29:07;6.60;;;2.97;;
24090;SDS011;12272;52.426;17.100;2023-02-27T07:34:10;5.37;;;3.03;;
24090;SDS011;12272;52.426;17.100;2023-02-27T07:39:14;6.47;;;3.10;;
24090;SDS011;12272;52.426;17.100;2023-02-27T07:44:17;8.50;;;4.37;;
24090;SDS011;12272;52.426;17.100;2023-02-27T07:49:19;7.27;;;3.10;;
24090;SDS011;12272;52.426;17.100;2023-02-27T07:54:22;8.67;;;3.60;;
24090;SDS011;12272;52.426;17.100;2023-02-27T07:59:25;5.13;;;2.90;;
24090;SDS011;12272;52.426;17.100;2023-02-27T08:04:27;3.50;;;2.33;;
24090;SDS011;12272;52.426;17.100;2023-02-27T08:09:30;4.50;;;2.77;;
24090;SDS011;12272;52.426;17.100;2023-02-27T08:14:32;4.20;;;2.73;;
24090;SDS011;12272;52.426;17.100;2023-02-27T08:19:35;5.63;;;2.97;;
24090;SDS011;12272;52.426;17.100;2023-02-27T08:24:38;4.40;;;2.60;;
24090;SDS011;12272;52.426;17.100;2023-02-27T08:29:41;4.20;;;2.80;;
24090;SDS011;12272;52.426;17.100;2023-02-27T08:34:44;4.90;;;2.50;;
24090;SDS011;12272;52.426;17.100;2023-02-27T08:39:46;3.53;;;2.77;;
24090;SDS011;12272;52.426;17.100;2023-02-27T08:44:49;4.07;;;2.77;;
24090;SDS011;12272;52.426;17.100;2023-02-27T08:49:52;4.50;;;2.40;;
24090;SDS011;12272;52.426;17.100;2023-02-27T08:54:54;5.07;;;2.10;;
24090;SDS011;12272;52.426;17.100;2023-02-27T08:59:57;3.67;;;2.20;;
24090;SDS011;12272;52.426;17.100;2023-02-27T09:04:59;3.37;;;2.27;;
24090;SDS011;12272;52.426;17.100;2023-02-27T09:10:02;3.53;;;2.60;;
24090;SDS011;12272;52.426;17.100;2023-02-27T09:15:05;3.37;;;1.70;;
24090;SDS011;12272;52.426;17.100;2023-02-27T09:20:09;3.57;;;2.20;;
24090;SDS011;12272;52.426;17.100;2023-02-27T09:25:12;5.40;;;2.77;;
24090;SDS011;12272;52.426;17.100;2023-02-27T09:30:14;3.73;;;2.40;;
24090;SDS011;12272;52.426;17.100;2023-02-27T09:35:17;3.10;;;2.33;;
24090;SDS011;12272;52.426;17.100;2023-02-27T09:40:24;2.60;;;1.60;;
24090;SDS011;12272;52.426;17.100;2023-02-27T09:45:28;2.43;;;1.87;;
24090;SDS011;12272;52.426;17.100;2023-02-27T09:50:35;2.67;;;1.67;;
24090;SDS011;12272;52.426;17.100;2023-02-27T09:55:41;5.93;;;1.90;;
24090;SDS011;12272;52.426;17.100;2023-02-27T10:00:47;4.93;;;2.07;;
24090;SDS011;12272;52.426;17.100;2023-02-27T10:11:23;6.53;;;1.90;;
24090;SDS011;12272;52.426;17.100;2023-02-27T10:16:33;4.73;;;1.93;;
24090;SDS011;12272;52.426;17.100;2023-02-27T10:21:37;2.33;;;1.63;;
24090;SDS011;12272;52.426;17.100;2023-02-27T10:26:46;5.53;;;2.37;;
24090;SDS011;12272;52.426;17.100;2023-02-27T10:31:52;3.73;;;1.60;;
24090;SDS011;12272;52.426;17.100;2023-02-27T10:37:09;3.00;;;1.57;;
24090;SDS011;12272;52.426;17.100;2023-02-27T10:42:16;3.80;;;2.10;;
24090;SDS011;12272;52.426;17.100;2023-02-27T10:47:20;2.53;;;1.83;;
24090;SDS011;12272;52.426;17.100;2023-02-27T10:52:24;4.53;;;1.80;;
24090;SDS011;12272;52.426;17.100;2023-02-27T10:57:31;8.40;;;3.37;;
24090;SDS011;12272;52.426;17.100;2023-02-27T11:02:41;3.40;;;1.00;;
24090;SDS011;12272;52.426;17.100;2023-02-27T11:07:44;2.33;;;1.17;;
24090;SDS011;12272;52.426;17.100;2023-02-27T11:18:26;2.27;;;1.50;;
24090;SDS011;12272;52.426;17.100;2023-02-27T11:23:30;4.63;;;1.47;;
24090;SDS011;12272;52.426;17.100;2023-02-27T11:28:34;2.13;;;1.77;;
24090;SDS011;12272;52.426;17.100;2023-02-27T11:33:38;3.53;;;1.80;;
24090;SDS011;12272;52.426;17.100;2023-02-27T11:38:52;4.17;;;1.40;;
24090;SDS011;12272;52.426;17.100;2023-02-27T11:43:56;2.07;;;1.30;;
24090;SDS011;12272;52.426;17.100;2023-02-27T11:54:14;2.57;;;1.80;;
24090;SDS011;12272;52.426;17.100;2023-02-27T11:59:39;2.37;;;1.00;;
24090;SDS011;12272;52.426;17.100;2023-02-27T12:10:20;1.43;;;0.67;;
24090;SDS011;12272;52.426;17.100;2023-02-27T12:15:47;1.43;;;1.00;;
24090;SDS011;12272;52.426;17.100;2023-02-27T12:21:01;1.70;;;1.13;;
24090;SDS011;12272;52.426;17.100;2023-02-27T12:36:38;1.70;;;0.93;;
24090;SDS011;12272;52.426;17.100;2023-02-27T12:41:49;2.73;;;1.20;;
24090;SDS011;12272;52.426;17.100;2023-02-27T12:58:19;2.67;;;1.40;;
24090;SDS011;12272;52.426;17.100;2023-02-27T13:09:07;1.67;;;0.87;;
24090;SDS011;12272;52.426;17.100;2023-02-27T13:14:25;1.90;;;1.23;;
24090;SDS011;12272;52.426;17.100;2023-02-27T13:24:43;7.90;;;1.43;;
24090;SDS011;12272;52.426;17.100;2023-02-27T13:30:03;1.80;;;1.30;;
24090;SDS011;12272;52.426;17.100;2023-02-27T13:35:27;2.47;;;1.80;;
24090;SDS011;12272;52.426;17.100;2023-02-27T13:40:50;2.50;;;1.30;;
24090;SDS011;12272;52.426;17.100;2023-02-27T13:45:54;3.63;;;1.53;;
24090;SDS011;12272;52.426;17.100;2023-02-27T13:50:58;2.73;;;1.57;;
24090;SDS011;12272;52.426;17.100;2023-02-27T13:56:18;1.60;;;1.40;;
24090;SDS011;12272;52.426;17.100;2023-02-27T14:01:25;2.00;;;1.40;;
24090;SDS011;12272;52.426;17.100;2023-02-27T14:06:30;3.93;;;2.47;;
24090;SDS011;12272;52.426;17.100;2023-02-27T14:11:33;5.67;;;2.30;;
24090;SDS011;12272;52.426;17.100;2023-02-27T14:27:16;3.37;;;1.10;;
24090;SDS011;12272;52.426;17.100;2023-02-27T14:32:25;5.17;;;1.60;;
24090;SDS011;12272;52.426;17.100;2023-02-27T14:37:39;2.07;;;1.33;;
24090;SDS011;12272;52.426;17.100;2023-02-27T14:43:16;6.27;;;4.40;;
24090;SDS011;12272;52.426;17.100;2023-02-27T14:48:25;4.23;;;1.33;;
24090;SDS011;12272;52.426;17.100;2023-02-27T14:53:28;1.83;;;1.40;;
24090;SDS011;12272;52.426;17.100;2023-02-27T14:58:31;4.87;;;1.67;;
24090;SDS011;12272;52.426;17.100;2023-02-27T15:03:46;4.33;;;1.90;;
24090;SDS011;12272;52.426;17.100;2023-02-27T15:08:52;3.23;;;1.37;;
24090;SDS011;12272;52.426;17.100;2023-02-27T15:13:59;1.57;;;0.80;;
24090;SDS011;12272;52.426;17.100;2023-02-27T15:19:11;1.73;;;1.50;;
24090;SDS011;12272;52.426;17.100;2023-02-27T15:24:27;5.87;;;2.23;;
24090;SDS011;12272;52.426;17.100;2023-02-27T15:29:54;5.43;;;2.30;;
24090;SDS011;12272;52.426;17.100;2023-02-27T15:34:59;3.53;;;1.90;;
24090;SDS011;12272;52.426;17.100;2023-02-27T15:40:27;12.17;;;5.53;;
24090;SDS011;12272;52.426;17.100;2023-02-27T15:45:33;4.23;;;2.67;;
24090;SDS011;12272;52.426;17.100;2023-02-27T15:50:37;9.00;;;5.63;;
24090;SDS011;12272;52.426;17.100;2023-02-27T15:55:44;8.50;;;4.97;;
24090;SDS011;12272;52.426;17.100;2023-02-27T16:06:07;5.57;;;2.70;;
24090;SDS011;12272;52.426;17.100;2023-02-27T16:11:25;6.87;;;3.27;;
24090;SDS011;12272;52.426;17.100;2023-02-27T16:16:30;10.57;;;7.13;;
24090;SDS011;12272;52.426;17.100;2023-02-27T16:21:36;11.83;;;8.23;;
24090;SDS011;12272;52.426;17.100;2023-02-27T16:26:38;13.50;;;8.17;;
24090;SDS011;12272;52.426;17.100;2023-02-27T16:31:48;12.67;;;5.63;;
24090;SDS011;12272;52.426;17.100;2023-02-27T16:36:55;9.47;;;5.23;;
24090;SDS011;12272;52.426;17.100;2023-02-27T16:41:59;9.77;;;5.63;;
24090;SDS011;12272;52.426;17.100;2023-02-27T16:47:02;12.50;;;5.00;;
24090;SDS011;12272;52.426;17.100;2023-02-27T16:52:06;9.90;;;4.50;;
24090;SDS011;12272;52.426;17.100;2023-02-27T16:57:12;11.17;;;4.83;;
24090;SDS011;12272;52.426;17.100;2023-02-27T17:02:15;13.67;;;5.77;;
24090;SDS011;12272;52.426;17.100;2023-02-27T17:07:17;13.37;;;4.77;;
24090;SDS011;12272;52.426;17.100;2023-02-27T17:12:20;16.77;;;5.23;;
24090;SDS011;12272;52.426;17.100;2023-02-27T17:17:23;16.03;;;6.10;;
24090;SDS011;12272;52.426;17.100;2023-02-27T17:22:25;13.60;;;5.07;;
24090;SDS011;12272;52.426;17.100;2023-02-27T17:27:27;15.60;;;6.10;;
24090;SDS011;12272;52.426;17.100;2023-02-27T17:32:30;17.00;;;6.03;;
24090;SDS011;12272;52.426;17.100;2023-02-27T17:37:34;15.13;;;6.30;;
24090;SDS011;12272;52.426;17.100;2023-02-27T17:42:37;22.70;;;6.63;;
24090;SDS011;12272;52.426;17.100;2023-02-27T17:47:40;18.87;;;5.13;;
24090;SDS011;12272;52.426;17.100;2023-02-27T17:52:44;18.90;;;5.93;;
24090;SDS011;12272;52.426;17.100;2023-02-27T17:57:47;19.83;;;5.47;;
24090;SDS011;12272;52.426;17.100;2023-02-27T18:02:50;13.40;;;7.43;;
24090;SDS011;12272;52.426;17.100;2023-02-27T18:07:52;15.90;;;7.80;;
24090;SDS011;12272;52.426;17.100;2023-02-27T18:12:56;29.63;;;10.33;;
24090;SDS011;12272;52.426;17.100;2023-02-27T18:17:58;31.33;;;14.17;;
24090;SDS011;12272;52.426;17.100;2023-02-27T18:23:01;24.70;;;11.73;;
24090;SDS011;12272;52.426;17.100;2023-02-27T18:28:05;17.43;;;8.93;;
24090;SDS011;12272;52.426;17.100;2023-02-27T18:33:08;14.67;;;6.93;;
24090;SDS011;12272;52.426;17.100;2023-02-27T18:38:11;9.33;;;4.70;;
24090;SDS011;12272;52.426;17.100;2023-02-27T18:43:14;7.63;;;4.13;;
24090;SDS011;12272;52.426;17.100;2023-02-27T18:48:16;12.00;;;4.37;;
24090;SDS011;12272;52.426;17.100;2023-02-27T18:53:19;9.17;;;4.77;;
24090;SDS011;12272;52.426;17.100;2023-02-27T18:58:21;7.33;;;4.53;;
24090;SDS011;12272;52.426;17.100;2023-02-27T19:03:24;10.77;;;5.00;;
24090;SDS011;12272;52.426;17.100;2023-02-27T19:08:28;10.73;;;5.80;;
24090;SDS011;12272;52.426;17.100;2023-02-27T19:13:31;11.43;;;6.13;;
24090;SDS011;12272;52.426;17.100;2023-02-27T19:18:33;14.40;;;5.90;;
24090;SDS011;12272;52.426;17.100;2023-02-27T19:23:36;15.33;;;9.37;;
24090;SDS011;12272;52.426;17.100;2023-02-27T19:28:39;22.47;;;12.77;;
24090;SDS011;12272;52.426;17.100;2023-02-27T19:33:42;14.73;;;8.87;;
24090;SDS011;12272;52.426;17.100;2023-02-27T19:38:44;27.57;;;13.13;;
24090;SDS011;12272;52.426;17.100;2023-02-27T19:43:48;21.67;;;13.80;;
24090;SDS011;12272;52.426;17.100;2023-02-27T19:48:51;20.00;;;11.23;;
24090;SDS011;12272;52.426;17.100;2023-02-27T19:53:55;17.90;;;11.03;;
24090;SDS011;12272;52.426;17.100;2023-02-27T19:58:58;13.97;;;9.10;;
24090;SDS011;12272;52.426;17.100;2023-02-27T20:04:02;17.30;;;8.63;;
24090;SDS011;12272;52.426;17.100;2023-02-27T20:09:04;7.73;;;5.17;;
24090;SDS011;12272;52.426;17.100;2023-02-27T20:14:07;13.73;;;6.93;;
24090;SDS011;12272;52.426;17.100;2023-02-27T20:19:11;7.93;;;5.50;;
24090;SDS011;12272;52.426;17.100;2023-02-27T20:24:15;11.57;;;6.20;;
24090;SDS011;12272;52.426;17.100;2023-02-27T20:29:21;8.33;;;5.77;;
24090;SDS011;12272;52.426;17.100;2023-02-27T20:34:24;7.53;;;6.40;;
24090;SDS011;12272;52.426;17.100;2023-02-27T20:39:27;9.40;;;6.67;;
24090;SDS011;12272;52.426;17.100;2023-02-27T20:44:30;9.20;;;6.50;;
24090;SDS011;12272;52.426;17.100;2023-02-27T20:49:33;12.40;;;6.93;;
24090;SDS011;12272;52.426;17.100;2023-02-27T20:54:36;10.63;;;7.47;;
24090;SDS011;12272;52.426;17.100;2023-02-27T20:59:40;11.43;;;7.60;;
24090;SDS011;12272;52.426;17.100;2023-02-27T21:04:43;16.67;;;8.77;;
24090;SDS011;12272;52.426;17.100;2023-02-27T21:09:48;18.40;;;11.07;;
24090;SDS011;12272;52.426;17.100;2023-02-27T21:14:51;22.90;;;11.57;;
24090;SDS011;12272;52.426;17.100;2023-02-27T21:19:54;27.60;;;13.97;;
24090;SDS011;12272;52.426;17.100;2023-02-27T21:24:57;27.03;;;14.97;;
24090;SDS011;12272;52.426;17.100;2023-02-27T21:30:00;27.97;;;14.70;;
24090;SDS011;12272;52.426;17.100;2023-02-27T21:35:07;23.20;;;11.67;;
24090;SDS011;12272;52.426;17.100;2023-02-27T21:40:10;20.33;;;11.97;;
24090;SDS011;12272;52.426;17.100;2023-02-27T21:45:13;24.10;;;11.73;;
24090;SDS011;12272;52.426;17.100;2023-02-27T21:50:15;24.53;;;13.90;;
24090;SDS011;12272;52.426;17.100;2023-02-27T21:55:19;22.67;;;13.23;;
24090;SDS011;12272;52.426;17.100;2023-02-27T22:00:22;20.77;;;12.20;;
24090;SDS011;12272;52.426;17.100;2023-02-27T22:05:27;21.40;;;12.50;;
24090;SDS011;12272;52.426;17.100;2023-02-27T22:10:29;22.93;;;13.33;;
24090;SDS011;12272;52.426;17.100;2023-02-27T22:15:34;20.57;;;11.77;;
24090;SDS011;12272;52.426;17.100;2023-02-27T22:20:37;24.33;;;12.77;;
24090;SDS011;12272;52.426;17.100;2023-02-27T22:25:41;20.43;;;12.50;;
24090;SDS011;12272;52.426;17.100;2023-02-27T22:30:43;18.83;;;11.20;;
24090;SDS011;12272;52.426;17.100;2023-02-27T22:35:46;22.23;;;11.70;;
24090;SDS011;12272;52.426;17.100;2023-02-27T22:40:49;26.73;;;12.93;;
24090;SDS011;12272;52.426;17.100;2023-02-27T22:45:52;24.90;;;14.47;;
24090;SDS011;12272;52.426;17.100;2023-02-27T22:50:55;23.63;;;12.00;;
24090;SDS011;12272;52.426;17.100;2023-02-27T22:56:08;25.80;;;12.73;;
24090;SDS011;12272;52.426;17.100;2023-02-27T23:01:22;25.80;;;13.90;;
24090;SDS011;12272;52.426;17.100;2023-02-27T23:06:31;25.07;;;15.57;;
24090;SDS011;12272;52.426;17.100;2023-02-27T23:11:35;24.10;;;13.50;;
24090;SDS011;12272;52.426;17.100;2023-02-27T23:16:38;23.03;;;12.90;;
24090;SDS011;12272;52.426;17.100;2023-02-27T23:21:41;27.13;;;14.30;;
24090;SDS011;12272;52.426;17.100;2023-02-27T23:26:45;24.50;;;14.57;;
24090;SDS011;12272;52.426;17.100;2023-02-27T23:31:49;20.10;;;11.77;;
24090;SDS011;12272;52.426;17.100;2023-02-27T23:36:52;24.83;;;11.77;;
24090;SDS011;12272;52.426;17.100;2023-02-27T23:41:55;20.93;;;12.97;;
24090;SDS011;12272;52.426;17.100;2023-02-27T23:46:57;22.97;;;12.20;;
24090;SDS011;12272;52.426;17.100;2023-02-27T23:52:00;23.53;;;14.03;;
24090;SDS011;12272;52.426;17.100;2023-02-27T23:57:02;31.17;;;16.07;;
